createdAt,value
2018-08-06T00:01:08.123Z,98299.13
2018-08-06T00:03:35.787Z,98300.61
2018-08-06T00:06:03.503Z,98302.53
2018-08-06T00:08:31.206Z,98297.20
2018-08-06T00:10:58.808Z,98296.95
2018-08-06T00:13:26.445Z,98297.20
2018-08-06T00:15:54.072Z,98289.83
2018-08-06T00:18:21.838Z,98296.95
2018-08-06T00:20:49.415Z,98295.92
2018-08-06T00:23:17.009Z,98296.44
2018-08-06T00:25:44.633Z,98292.86
2018-08-06T00:28:12.281Z,98294.39
2018-08-06T00:30:39.921Z,98291.06
2018-08-06T00:33:07.532Z,98291.28
2018-08-06T00:35:35.216Z,98290.30
2018-08-06T00:38:02.904Z,98281.39
2018-08-06T00:40:30.572Z,98283.28
2018-08-06T00:42:58.186Z,98280.74
2018-08-06T00:45:25.844Z,98277.71
2018-08-06T00:47:53.461Z,98284.91
2018-08-06T00:50:21.074Z,98278.91
2018-08-06T00:52:48.704Z,98272.05
2018-08-06T00:55:17.644Z,98277.80
2018-08-06T00:57:45.223Z,98274.98
2018-08-06T01:00:15.237Z,98272.69
2018-08-06T01:02:43.025Z,98267.11
2018-08-06T01:05:11.735Z,98268.14
2018-08-06T01:07:39.752Z,98258.09
2018-08-06T01:10:09.297Z,98256.68
2018-08-06T01:12:37.860Z,98261.28
2018-08-06T01:15:06.093Z,98258.59
2018-08-06T01:17:33.800Z,98262.56
2018-08-06T01:20:01.447Z,98259.91
2018-08-06T01:22:29.133Z,98250.89
2018-08-06T01:24:56.796Z,98247.61
2018-08-06T01:27:24.415Z,98251.31
2018-08-06T01:29:52.141Z,98242.28
2018-08-06T01:32:19.823Z,98234.79
2018-08-06T01:34:47.528Z,98249.63
2018-08-06T01:37:15.139Z,98248.09
2018-08-06T01:39:42.739Z,98247.62
2018-08-06T01:42:10.343Z,98247.62
2018-08-06T01:44:37.964Z,98252.59
2018-08-06T01:47:05.676Z,98254.56
2018-08-06T01:49:33.282Z,98251.50
2018-08-06T01:52:00.872Z,98238.75
2018-08-06T01:54:28.485Z,98245.79
2018-08-06T01:56:56.134Z,98242.86
2018-08-06T01:59:23.691Z,98242.50
2018-08-06T02:01:51.368Z,98240.08
2018-08-06T02:04:18.973Z,98235.10
2018-08-06T02:06:46.579Z,98230.77
2018-08-06T02:09:14.196Z,98229.13
2018-08-06T02:11:41.811Z,98229.52
2018-08-06T02:14:09.415Z,98235.63
2018-08-06T02:16:37.095Z,98228.77
2018-08-06T02:19:04.706Z,98233.48
2018-08-06T02:21:32.272Z,98228.80
2018-08-06T02:23:59.951Z,98226.91
2018-08-06T02:26:27.700Z,98227.41
2018-08-06T02:28:55.339Z,98236.47
2018-08-06T02:31:23.008Z,98230.37
2018-08-06T02:33:50.631Z,98234.31
2018-08-06T02:36:18.300Z,98232.56
2018-08-06T02:38:45.891Z,98233.83
2018-08-06T02:41:13.533Z,98237.28
2018-08-06T02:43:41.248Z,98240.86
2018-08-06T02:46:08.896Z,98239.45
2018-08-06T02:48:36.511Z,98236.65
2018-08-06T02:51:04.171Z,98243.53
2018-08-06T02:53:31.822Z,98247.10
2018-08-06T02:55:59.500Z,98232.33
2018-08-06T02:58:27.245Z,98232.84
2018-08-06T03:00:54.979Z,98233.47
2018-08-06T03:03:22.602Z,98236.05
2018-08-06T03:05:50.210Z,98237.58
2018-08-06T03:08:17.859Z,98233.88
2018-08-06T03:10:45.515Z,98238.72
2018-08-06T03:13:13.170Z,98239.99
2018-08-06T03:15:40.836Z,98239.73
2018-08-06T03:18:08.516Z,98241.03
2018-08-06T03:20:36.100Z,98239.11
2018-08-06T03:23:03.743Z,98234.55
2018-08-06T03:25:31.468Z,98238.21
2018-08-06T03:27:59.038Z,98234.55
2018-08-06T03:33:08.436Z,98247.03
2018-08-06T03:35:36.052Z,98240.79
2018-08-06T03:38:03.690Z,98244.61
2018-08-06T03:40:31.399Z,98243.95
2018-08-06T03:42:59.028Z,98239.87
2018-08-06T03:45:26.655Z,98235.41
2018-08-06T03:47:54.325Z,98242.28
2018-08-06T03:50:21.958Z,98235.55
2018-08-06T03:52:49.591Z,98241.55
2018-08-06T03:55:17.275Z,98243.19
2018-08-06T03:57:44.891Z,98244.09
2018-08-06T04:00:13.703Z,98244.10
2018-08-06T04:02:41.908Z,98246.64
2018-08-06T04:05:11.303Z,98241.17
2018-08-06T04:07:39.348Z,98243.20
2018-08-06T04:10:08.303Z,98237.10
2018-08-06T04:12:35.922Z,98232.77
2018-08-06T04:15:04.332Z,98243.07
2018-08-06T04:17:31.971Z,98239.91
2018-08-06T04:19:59.603Z,98242.70
2018-08-06T04:22:27.215Z,98240.00
2018-08-06T04:24:54.911Z,98242.70
2018-08-06T04:27:22.539Z,98243.34
2018-08-06T04:29:50.115Z,98245.23
2018-08-06T04:32:17.752Z,98241.16
2018-08-06T04:34:45.341Z,98241.66
2018-08-06T04:37:12.944Z,98250.47
2018-08-06T04:39:40.623Z,98252.37
2018-08-06T04:42:08.263Z,98248.80
2018-08-06T04:44:35.903Z,98250.47
2018-08-06T04:47:03.588Z,98249.05
2018-08-06T04:49:31.165Z,98248.80
2018-08-06T04:51:58.804Z,98250.33
2018-08-06T04:54:26.465Z,98247.28
2018-08-06T04:56:54.091Z,98244.47
2018-08-06T04:59:21.765Z,98245.73
2018-08-06T05:01:49.384Z,98250.81
2018-08-06T05:04:16.952Z,98249.53
2018-08-06T05:06:44.675Z,98252.69
2018-08-06T05:09:19.675Z,98250.28
2018-08-06T05:11:47.379Z,98252.22
2018-08-06T05:14:15.009Z,98250.69
2018-08-06T05:16:42.769Z,98252.58
2018-08-06T05:19:10.634Z,98258.16
2018-08-06T05:21:38.390Z,98257.11
2018-08-06T05:24:06.120Z,98260.38
2018-08-06T05:26:33.905Z,98260.22
2018-08-06T05:29:01.575Z,98262.86
2018-08-06T05:31:29.331Z,98261.55
2018-08-06T05:33:57.922Z,98263.44
2018-08-06T05:36:25.539Z,98267.14
2018-08-06T05:38:54.476Z,98265.55
2018-08-06T05:41:23.422Z,98270.90
2018-08-06T05:43:51.903Z,98279.03
2018-08-06T05:46:19.585Z,98276.78
2018-08-06T05:48:47.187Z,98284.32
2018-08-06T05:51:14.805Z,98278.59
2018-08-06T05:53:42.491Z,98279.52
2018-08-06T05:56:10.759Z,98281.24
2018-08-06T05:58:38.980Z,98282.88
2018-08-06T06:01:06.747Z,98285.16
2018-08-06T06:03:34.423Z,98291.96
2018-08-06T06:06:02.052Z,98285.59
2018-08-06T06:08:29.752Z,98287.23
2018-08-06T06:10:57.324Z,98292.13
2018-08-06T06:13:24.960Z,98290.48
2018-08-06T06:15:52.760Z,98288.99
2018-08-06T06:18:20.320Z,98290.51
2018-08-06T06:20:47.932Z,98289.16
2018-08-06T06:23:15.654Z,98292.03
2018-08-06T06:25:43.307Z,98292.74
2018-08-06T06:28:10.973Z,98289.95
2018-08-06T06:30:38.675Z,98285.54
2018-08-06T06:33:06.336Z,98287.20
2018-08-06T06:35:33.988Z,98291.09
2018-08-06T06:38:01.668Z,98281.44
2018-08-06T06:40:29.437Z,98282.83
2018-08-06T06:42:57.055Z,98283.36
2018-08-06T06:45:24.771Z,98278.17
2018-08-06T06:47:52.552Z,98281.72
2018-08-06T06:50:20.131Z,98276.04
2018-08-06T06:52:47.735Z,98283.82
2018-08-06T06:55:15.381Z,98276.44
2018-08-06T06:57:43.456Z,98279.58
2018-08-06T07:00:11.380Z,98283.78
2018-08-06T07:02:39.563Z,98278.44
2018-08-06T07:05:07.403Z,98285.59
2018-08-06T07:07:35.476Z,98286.36
2018-08-06T07:10:03.752Z,98283.69
2018-08-06T07:12:31.465Z,98276.41
2018-08-06T07:14:59.295Z,98280.55
2018-08-06T07:17:26.947Z,98280.31
2018-08-06T07:19:54.764Z,98278.75
2018-08-06T07:22:22.925Z,98277.59
2018-08-06T07:24:50.556Z,98276.31
2018-08-06T07:27:18.167Z,98275.73
2018-08-06T07:29:45.950Z,98279.35
2018-08-06T07:32:13.655Z,98272.52
2018-08-06T07:34:41.342Z,98273.38
2018-08-06T07:37:08.990Z,98270.64
2018-08-06T07:39:36.597Z,98272.55
2018-08-06T07:42:04.303Z,98279.61
2018-08-06T07:44:32.164Z,98276.27
2018-08-06T07:46:59.817Z,98270.45
2018-08-06T07:49:27.481Z,98272.27
2018-08-06T07:51:55.056Z,98265.93
2018-08-06T07:54:22.684Z,98261.94
2018-08-06T07:56:50.259Z,98263.81
2018-08-06T07:59:17.916Z,98257.13
2018-08-06T08:01:45.571Z,98256.72
2018-08-06T08:04:13.198Z,98255.62
2018-08-06T08:06:40.935Z,98256.48
2018-08-06T08:09:10.068Z,98252.31
2018-08-06T08:11:37.875Z,98253.42
2018-08-06T08:14:05.749Z,98252.73
2018-08-06T08:16:33.813Z,98249.34
2018-08-06T08:19:01.376Z,98249.33
2018-08-06T08:21:29.092Z,98252.57
2018-08-06T08:23:56.759Z,98244.56
2018-08-06T08:26:24.526Z,98246.89
2018-08-06T08:28:52.284Z,98241.42
2018-08-06T08:31:19.933Z,98235.27
2018-08-06T08:33:47.634Z,98242.78
2018-08-06T08:36:15.464Z,98235.95
2018-08-06T08:38:43.208Z,98236.20
2018-08-06T08:41:11.127Z,98236.38
2018-08-06T08:43:38.776Z,98238.00
2018-08-06T08:46:06.612Z,98232.48
2018-08-06T08:48:35.565Z,98230.44
2018-08-06T08:51:03.304Z,98231.56
2018-08-06T08:53:30.973Z,98228.75
2018-08-06T08:55:59.609Z,98221.12
2018-08-06T08:58:27.292Z,98231.47
2018-08-06T09:00:55.130Z,98223.44
2018-08-06T09:03:22.838Z,98219.13
2018-08-06T09:05:50.525Z,98212.77
2018-08-06T09:08:18.189Z,98210.81
2018-08-06T09:10:46.340Z,98209.15
2018-08-06T09:13:15.948Z,98205.04
2018-08-06T09:15:43.523Z,98205.92
2018-08-06T09:18:11.111Z,98206.15
2018-08-06T09:20:38.755Z,98203.03
2018-08-06T09:23:06.535Z,98202.41
2018-08-06T09:25:34.199Z,98206.83
2018-08-06T09:28:01.889Z,98204.13
2018-08-06T09:30:29.606Z,98196.78
2018-08-06T09:32:57.774Z,98197.48
2018-08-06T09:35:25.394Z,98200.19
2018-08-06T09:37:53.192Z,98193.92
2018-08-06T09:40:21.908Z,98193.44
2018-08-06T09:42:50.133Z,98187.37
2018-08-06T09:45:19.036Z,98189.56
2018-08-06T09:47:47.954Z,98182.33
2018-08-06T09:50:16.527Z,98180.70
2018-08-06T09:52:45.004Z,98179.72
2018-08-06T09:55:13.958Z,98172.08
2018-08-06T09:57:42.147Z,98166.56
2018-08-06T10:00:19.028Z,98174.52
2018-08-06T10:02:47.583Z,98166.39
2018-08-06T10:05:15.258Z,98167.19
2018-08-06T10:07:43.195Z,98166.05
2018-08-06T10:10:12.403Z,98164.11
2018-08-06T10:12:40.607Z,98152.88
2018-08-06T10:15:09.056Z,98154.31
2018-08-06T10:17:36.872Z,98152.12
2018-08-06T10:20:06.506Z,98149.19
2018-08-06T10:22:34.096Z,98147.16
2018-08-06T10:25:01.790Z,98146.20
2018-08-06T10:27:29.436Z,98143.48
2018-08-06T10:29:57.212Z,98138.44
2018-08-06T10:32:24.851Z,98135.73
2018-08-06T10:34:53.617Z,98135.68
2018-08-06T10:37:21.396Z,98132.69
2018-08-06T10:39:49.578Z,98132.88
2018-08-06T10:42:17.365Z,98125.80
2018-08-06T10:44:44.986Z,98122.80
2018-08-06T10:47:12.638Z,98122.11
2018-08-06T10:49:40.240Z,98116.60
2018-08-06T10:52:07.960Z,98118.81
2018-08-06T10:54:35.631Z,98119.15
2018-08-06T10:57:03.298Z,98111.48
2018-08-06T10:59:30.916Z,98107.25
2018-08-06T11:01:58.659Z,98100.67
2018-08-06T11:04:26.369Z,98095.94
2018-08-06T11:06:54.375Z,98092.42
2018-08-06T11:09:22.016Z,98087.35
2018-08-06T11:11:49.647Z,98085.30
2018-08-06T11:14:17.427Z,98079.84
2018-08-06T11:16:45.020Z,98070.66
2018-08-06T11:19:12.656Z,98069.09
2018-08-06T11:21:40.371Z,98068.38
2018-08-06T11:24:08.243Z,98070.16
2018-08-06T11:26:35.995Z,98069.50
2018-08-06T11:29:03.831Z,98062.90
2018-08-06T11:31:31.571Z,98065.33
2018-08-06T11:33:59.250Z,98061.02
2018-08-06T11:36:26.908Z,98061.47
2018-08-06T11:38:54.551Z,98066.98
2018-08-06T11:41:22.173Z,98053.96
2018-08-06T11:43:49.788Z,98052.30
2018-08-06T11:46:17.427Z,98047.73
2018-08-06T11:48:45.103Z,98044.83
2018-08-06T11:51:12.703Z,98038.13
2018-08-06T11:53:40.382Z,98035.01
2018-08-06T11:56:08.029Z,98024.94
2018-08-06T11:58:35.663Z,98026.19
2018-08-06T12:01:03.422Z,98029.93
2018-08-06T12:03:31.096Z,98024.86
2018-08-06T12:05:58.720Z,98021.75
2018-08-06T12:08:26.397Z,98026.86
2018-08-06T12:10:53.999Z,98028.21
2018-08-06T12:13:21.594Z,98019.89
2018-08-06T12:15:49.242Z,98024.14
2018-08-06T12:18:16.839Z,98024.36
2018-08-06T12:20:44.516Z,98016.21
2018-08-06T12:23:12.189Z,98013.38
2018-08-06T12:25:39.786Z,98013.72
2018-08-06T12:28:07.494Z,98018.58
2018-08-06T12:30:35.328Z,98009.23
2018-08-06T12:33:02.968Z,98009.55
2018-08-06T12:35:30.932Z,97999.16
2018-08-06T12:37:58.612Z,97992.22
2018-08-06T12:40:26.203Z,97986.28
2018-08-06T12:42:53.875Z,97995.75
2018-08-06T12:45:21.571Z,97987.92
2018-08-06T12:47:49.220Z,97984.84
2018-08-06T12:50:17.343Z,97992.89
2018-08-06T12:52:45.138Z,97977.64
2018-08-06T12:55:14.089Z,97979.42
2018-08-06T12:57:42.594Z,97979.66
2018-08-06T13:00:16.905Z,97970.32
2018-08-06T13:02:45.101Z,97968.05
2018-08-06T13:05:12.910Z,97973.61
2018-08-06T13:07:41.143Z,97962.53
2018-08-06T13:10:08.890Z,97968.88
2018-08-06T13:12:37.765Z,97958.77
2018-08-06T13:15:06.184Z,97950.31
2018-08-06T13:17:33.847Z,97954.88
2018-08-06T13:20:02.338Z,97942.29
2018-08-06T13:22:30.201Z,97941.16
2018-08-06T13:24:57.967Z,97939.38
2018-08-06T13:27:25.580Z,97932.25
2018-08-06T13:29:53.251Z,97922.78
2018-08-06T13:32:20.924Z,97919.83
2018-08-06T13:34:48.500Z,97914.59
2018-08-06T13:37:16.178Z,97913.14
2018-08-06T13:39:43.778Z,97909.59
2018-08-06T13:42:11.561Z,97909.09
2018-08-06T13:44:39.196Z,97904.05
2018-08-06T13:47:06.900Z,97904.87
2018-08-06T13:49:34.444Z,97905.59
2018-08-06T13:52:02.119Z,97907.08
2018-08-06T13:54:29.802Z,97897.69
2018-08-06T13:56:57.383Z,97897.56
2018-08-06T13:59:25.228Z,97893.19
2018-08-06T14:01:52.695Z,97891.70
2018-08-06T14:04:20.357Z,97882.19
2018-08-06T14:06:48.033Z,97884.34
2018-08-06T14:09:15.652Z,97882.83
2018-08-06T14:11:43.320Z,97881.42
2018-08-06T14:14:10.955Z,97871.78
2018-08-06T14:16:38.855Z,97871.08
2018-08-06T14:19:06.468Z,97867.98
2018-08-06T14:21:34.391Z,97867.26
2018-08-06T14:24:02.120Z,97862.86
2018-08-06T14:26:29.725Z,97863.66
2018-08-06T14:28:57.569Z,97861.44
2018-08-06T14:31:25.213Z,97854.85
2018-08-06T14:33:53.443Z,97851.72
2018-08-06T14:36:21.127Z,97845.88
2018-08-06T14:38:48.715Z,97847.41
2018-08-06T14:41:16.377Z,97843.70
2018-08-06T14:43:44.029Z,97844.34
2018-08-06T14:46:11.719Z,97839.94
2018-08-06T14:48:39.457Z,97839.95
2018-08-06T14:51:07.268Z,97831.09
2018-08-06T14:53:35.036Z,97830.42
2018-08-06T14:56:02.707Z,97826.70
2018-08-06T14:58:30.340Z,97817.73
2018-08-06T15:00:59.019Z,97824.84
2018-08-06T15:03:26.767Z,97824.98
2018-08-06T15:05:54.456Z,97819.62
2018-08-06T15:08:22.082Z,97815.75
2018-08-06T15:10:49.785Z,97814.98
2018-08-06T15:13:17.464Z,97815.44
2018-08-06T15:15:45.108Z,97808.03
2018-08-06T15:18:12.729Z,97809.00
2018-08-06T15:20:40.448Z,97811.53
2018-08-06T15:23:08.088Z,97807.35
2018-08-06T15:25:35.756Z,97800.34
2018-08-06T15:28:03.535Z,97801.17
2018-08-06T15:30:31.320Z,97801.19
2018-08-06T15:32:58.944Z,97791.63
2018-08-06T15:35:26.823Z,97793.36
2018-08-06T15:37:54.658Z,97787.94
2018-08-06T15:40:22.879Z,97775.37
2018-08-06T15:42:50.534Z,97772.49
2018-08-06T15:45:18.272Z,97774.02
2018-08-06T15:47:46.279Z,97764.81
2018-08-06T15:50:16.799Z,97776.31
2018-08-06T15:52:44.492Z,97770.13
2018-08-06T15:55:12.257Z,97772.69
2018-08-06T15:57:39.930Z,97777.23
2018-08-06T16:00:10.035Z,97767.17
2018-08-06T16:02:37.827Z,97764.62
2018-08-06T16:05:06.727Z,97760.87
2018-08-06T16:07:34.456Z,97752.44
2018-08-06T16:10:02.172Z,97758.72
2018-08-06T16:12:30.264Z,97755.16
2018-08-06T16:14:57.995Z,97745.48
2018-08-06T16:17:25.608Z,97744.60
2018-08-06T16:19:53.440Z,97744.20
2018-08-06T16:22:21.126Z,97741.31
2018-08-06T16:24:48.776Z,97731.80
2018-08-06T16:27:16.560Z,97735.48
2018-08-06T16:29:44.131Z,97739.31
2018-08-06T16:32:11.846Z,97736.42
2018-08-06T16:34:39.629Z,97737.94
2018-08-06T16:37:07.217Z,97733.05
2018-08-06T16:39:34.834Z,97734.71
2018-08-06T16:42:02.638Z,97729.86
2018-08-06T16:44:30.352Z,97730.48
2018-08-06T16:46:58.508Z,97728.64
2018-08-06T16:49:26.144Z,97731.92
2018-08-06T16:51:53.798Z,97732.08
2018-08-06T16:54:21.643Z,97732.91
2018-08-06T16:56:49.384Z,97735.44
2018-08-06T16:59:17.275Z,97728.16
2018-08-06T17:01:45.001Z,97726.50
2018-08-06T17:04:13.264Z,97731.06
2018-08-06T17:06:40.984Z,97736.52
2018-08-06T17:09:09.050Z,97731.98
2018-08-06T17:11:36.755Z,97729.80
2018-08-06T17:14:04.977Z,97729.99
2018-08-06T17:16:32.651Z,97732.34
2018-08-06T17:19:00.281Z,97733.52
2018-08-06T17:21:27.920Z,97736.79
2018-08-06T17:23:55.598Z,97731.28
2018-08-06T17:26:28.088Z,97737.98
2018-08-06T17:28:55.825Z,97733.09
2018-08-06T17:31:23.435Z,97730.47
2018-08-06T17:33:51.119Z,97734.48
2018-08-06T17:36:18.752Z,97729.68
2018-08-06T17:38:46.393Z,97734.72
2018-08-06T17:41:14.056Z,97730.03
2018-08-06T17:43:41.651Z,97733.84
2018-08-06T17:46:09.271Z,97738.16
2018-08-06T17:48:36.902Z,97734.52
2018-08-06T17:51:04.487Z,97735.02
2018-08-06T17:53:32.112Z,97731.41
2018-08-06T17:55:59.716Z,97733.32
2018-08-06T17:58:27.472Z,97731.84
2018-08-06T18:00:55.145Z,97730.47
2018-08-06T18:03:22.815Z,97737.13
2018-08-06T18:05:50.440Z,97730.56
2018-08-06T18:08:18.156Z,97736.02
2018-08-06T18:10:45.769Z,97732.30
2018-08-06T18:13:13.376Z,97734.51
2018-08-06T18:15:40.988Z,97735.88
2018-08-06T18:18:08.683Z,97734.77
2018-08-06T18:20:36.423Z,97740.28
2018-08-06T18:23:04.083Z,97735.33
2018-08-06T18:25:31.832Z,97732.66
2018-08-06T18:27:59.427Z,97736.20
2018-08-06T18:30:27.140Z,97744.31
2018-08-06T18:32:54.868Z,97740.19
2018-08-06T18:35:22.447Z,97746.05
2018-08-06T18:37:50.073Z,97738.31
2018-08-06T18:40:19.030Z,97744.78
2018-08-06T18:42:46.779Z,97747.48
2018-08-06T18:45:15.923Z,97747.55
2018-08-06T18:47:44.592Z,97748.95
2018-08-06T18:50:13.329Z,97744.72
2018-08-06T18:52:41.650Z,97747.57
2018-08-06T18:55:10.844Z,97744.71
2018-08-06T18:57:38.677Z,97742.95
2018-08-06T19:00:08.655Z,97756.80
2018-08-06T19:02:36.475Z,97750.89
2018-08-06T19:05:04.440Z,97753.27
2018-08-06T19:07:32.119Z,97753.55
2018-08-06T19:09:59.767Z,97752.55
2018-08-06T19:12:32.804Z,97755.28
2018-08-06T19:15:00.420Z,97757.81
2018-08-06T19:17:28.084Z,97763.78
2018-08-06T19:19:55.805Z,97764.81
2018-08-06T19:22:23.375Z,97763.71
2018-08-06T19:24:56.451Z,97766.43
2018-08-06T19:27:24.215Z,97770.09
2018-08-06T19:29:51.861Z,97767.46
2018-08-06T19:32:19.475Z,97775.16
2018-08-06T19:34:47.187Z,97774.58
2018-08-06T19:37:20.319Z,97778.27
2018-08-06T19:39:47.947Z,97782.18
2018-08-06T19:42:15.640Z,97786.30
2018-08-06T19:44:43.252Z,97786.97
2018-08-06T19:47:10.919Z,97784.30
2018-08-06T19:49:44.132Z,97788.81
2018-08-06T19:52:11.759Z,97788.74
2018-08-06T19:54:39.343Z,97787.13
2018-08-06T19:57:07.093Z,97783.45
2018-08-06T19:59:34.755Z,97785.55
2018-08-06T20:02:02.488Z,97789.88
2018-08-06T20:04:30.132Z,97789.55
2018-08-06T20:06:57.874Z,97790.13
2018-08-06T20:09:25.572Z,97786.69
2018-08-06T20:11:53.229Z,97792.42
2018-08-06T20:14:22.080Z,97789.98
2018-08-06T20:16:49.690Z,97783.33
2018-08-06T20:19:17.363Z,97787.67
2018-08-06T20:21:45.193Z,97781.47
2018-08-06T20:24:12.892Z,97785.50
2018-08-06T20:26:40.493Z,97780.14
2018-08-06T20:29:08.200Z,97782.96
2018-08-06T20:31:35.869Z,97782.44
2018-08-06T20:34:03.540Z,97781.41
2018-08-06T20:36:31.176Z,97778.88
2018-08-06T20:38:58.833Z,97781.81
2018-08-06T20:41:26.464Z,97773.78
2018-08-06T20:43:54.144Z,97771.08
2018-08-06T20:46:21.737Z,97764.48
2018-08-06T20:48:49.348Z,97765.86
2018-08-06T20:51:17.037Z,97773.21
2018-08-06T20:53:44.712Z,97774.63
2018-08-06T20:56:12.431Z,97772.11
2018-08-06T20:58:40.120Z,97775.27
2018-08-06T21:01:07.748Z,97775.80
2018-08-06T21:03:35.381Z,97774.81
2018-08-06T21:06:03.200Z,97770.33
2018-08-06T21:08:30.896Z,97767.27
2018-08-06T21:10:58.549Z,97766.33
2018-08-06T21:13:26.215Z,97768.02
2018-08-06T21:15:53.856Z,97772.09
2018-08-06T21:18:21.488Z,97767.45
2018-08-06T21:20:49.160Z,97775.20
2018-08-06T21:23:16.840Z,97774.88
2018-08-06T21:25:44.491Z,97769.83
2018-08-06T21:28:12.157Z,97777.14
2018-08-06T21:30:39.845Z,97771.70
2018-08-06T21:33:07.509Z,97772.86
2018-08-06T21:35:35.173Z,97769.36
2018-08-06T21:38:04.084Z,97773.63
2018-08-06T21:40:31.718Z,97772.67
2018-08-06T21:42:59.367Z,97768.23
2018-08-06T21:45:27.094Z,97764.94
2018-08-06T21:47:54.728Z,97760.98
2018-08-06T21:50:22.373Z,97766.00
2018-08-06T21:52:49.987Z,97763.45
2018-08-06T21:55:17.652Z,97762.55
2018-08-06T21:57:45.320Z,97752.89
2018-08-06T22:00:30.664Z,97760.37
2018-08-06T22:02:58.352Z,97759.55
2018-08-06T22:05:26.064Z,97757.38
2018-08-06T22:07:53.700Z,97757.28
2018-08-06T22:10:21.432Z,97755.30
2018-08-06T22:12:49.061Z,97748.55
2018-08-06T22:15:16.756Z,97748.02
2018-08-06T22:17:44.453Z,97748.62
2018-08-06T22:20:12.068Z,97748.48
2018-08-06T22:22:39.709Z,97743.26
2018-08-06T22:25:07.512Z,97749.31
2018-08-06T22:27:35.151Z,97741.09
2018-08-06T22:30:02.794Z,97740.96
2018-08-06T22:32:30.439Z,97738.31
2018-08-06T22:34:58.056Z,97744.90
2018-08-06T22:37:25.644Z,97737.55
2018-08-06T22:39:53.396Z,97738.22
2018-08-06T22:42:21.015Z,97738.13
2018-08-06T22:44:48.631Z,97733.74
2018-08-06T22:47:16.381Z,97737.52
2018-08-06T22:49:44.013Z,97741.36
2018-08-06T22:52:11.612Z,97733.27
2018-08-06T22:54:39.264Z,97733.70
2018-08-06T22:57:06.829Z,97732.61
2018-08-06T22:59:34.422Z,97737.87
2018-08-06T23:02:02.157Z,97734.55
2018-08-06T23:04:29.794Z,97734.94
2018-08-06T23:06:57.455Z,97730.02
2018-08-06T23:09:25.137Z,97729.84
2018-08-06T23:11:52.745Z,97729.58
2018-08-06T23:14:20.357Z,97722.49
2018-08-06T23:16:48.006Z,97716.64
2018-08-06T23:19:15.628Z,97715.97
2018-08-06T23:21:43.312Z,97719.66
2018-08-06T23:24:11.051Z,97722.91
2018-08-06T23:26:38.670Z,97721.83
2018-08-06T23:29:06.271Z,97715.59
2018-08-06T23:31:33.983Z,97716.31
2018-08-06T23:34:01.590Z,97709.73
2018-08-06T23:36:29.193Z,97710.14
2018-08-06T23:38:56.855Z,97709.55
2018-08-06T23:41:24.471Z,97708.56
2018-08-06T23:43:52.120Z,97705.73
2018-08-06T23:46:19.828Z,97708.09
2018-08-06T23:48:47.719Z,97705.66
2018-08-06T23:51:15.373Z,97703.12
2018-08-06T23:53:43.084Z,97700.13
2018-08-06T23:56:20.292Z,97695.20
2018-08-06T23:58:47.960Z,97691.20
